Time;durP1;ratioP1;P1;durP2;ratioP2;P2;SDS_P1;SDS_P2;PMS_P1;PMS_P2;Temp;Humidity;BMP_temperature;BMP_pressure;BME280_temperature;BME280_humidity;BME280_pressure;Samples;Min_cycle;Max_cycle;Signal;HPM_P1;HPM_P2
2023/12/31 00:00:56;;;;;;;8.75;2.08;;;7.50;99.90;;;;;;5063995;28;20040;-64
2023/12/31 00:03:21;;;;;;;8.80;2.35;;;7.50;99.90;;;;;;5059866;28;20055;-64
2023/12/31 00:05:47;;;;;;;8.38;2.40;;;7.50;99.90;;;;;;5063909;28;20041;-65
2023/12/31 00:08:13;;;;;;;7.57;2.10;;;7.60;99.90;;;;;;5057387;28;20670;-64
2023/12/31 00:10:40;;;;;;;5.70;1.88;;;7.60;99.90;;;;;;5055948;28;20105;-64
2023/12/31 00:13:06;;;;;;;6.78;1.58;;;7.60;99.90;;;;;;5062116;28;20118;-64
2023/12/31 00:15:32;;;;;;;8.73;2.25;;;7.70;99.90;;;;;;5065544;28;20509;-64
2023/12/31 00:17:57;;;;;;;4.22;2.03;;;7.70;99.90;;;;;;5056751;28;20133;-64
2023/12/31 00:20:23;;;;;;;4.07;1.80;;;7.70;99.90;;;;;;5064817;28;20056;-64
2023/12/31 00:22:49;;;;;;;6.90;2.20;;;7.70;99.90;;;;;;5058620;28;20041;-64
2023/12/31 00:25:15;;;;;;;6.65;2.15;;;7.70;99.90;;;;;;5062113;28;20039;-64
2023/12/31 00:27:41;;;;;;;7.78;1.95;;;7.80;99.90;;;;;;5064507;28;20056;-64
2023/12/31 00:30:08;;;;;;;8.80;2.53;;;7.80;99.90;;;;;;5045935;28;20550;-64
2023/12/31 00:32:33;;;;;;;8.75;1.98;;;7.80;99.90;;;;;;5061681;28;20041;-64
2023/12/31 00:34:59;;;;;;;7.25;2.13;;;7.70;99.90;;;;;;5057892;28;20366;-64
2023/12/31 00:37:25;;;;;;;5.53;1.90;;;7.70;99.90;;;;;;5056188;28;20048;-64
2023/12/31 00:39:50;;;;;;;8.82;2.42;;;7.80;99.90;;;;;;5064447;28;20445;-64
2023/12/31 00:42:16;;;;;;;6.03;1.60;;;7.70;99.90;;;;;;5062618;28;20052;-64
2023/12/31 00:44:42;;;;;;;5.65;2.05;;;7.70;99.90;;;;;;5064686;28;20388;-64
2023/12/31 00:47:08;;;;;;;4.32;2.40;;;7.70;99.90;;;;;;5059632;28;20094;-64
2023/12/31 00:49:33;;;;;;;9.82;1.98;;;7.60;99.90;;;;;;5081934;28;20059;-64
2023/12/31 00:51:59;;;;;;;10.98;2.45;;;7.60;99.90;;;;;;5069230;28;20056;-64
2023/12/31 00:54:25;;;;;;;5.18;1.95;;;7.50;99.90;;;;;;5065713;28;20504;-65
2023/12/31 00:56:51;;;;;;;5.13;2.42;;;7.50;99.90;;;;;;5067589;28;20044;-64
2023/12/31 00:59:16;;;;;;;7.93;2.25;;;7.50;99.90;;;;;;5073179;28;20450;-64
2023/12/31 01:01:42;;;;;;;5.22;2.00;;;7.50;99.90;;;;;;5066793;28;20299;-64
2023/12/31 01:04:08;;;;;;;7.18;2.08;;;7.50;99.90;;;;;;5062377;28;20456;-64
2023/12/31 01:06:34;;;;;;;4.25;2.03;;;7.50;99.90;;;;;;5063625;28;20080;-64
2023/12/31 01:08:59;;;;;;;6.82;2.30;;;7.50;99.90;;;;;;5063965;28;20504;-65
2023/12/31 01:11:27;;;;;;;3.60;2.08;;;7.50;99.90;;;;;;5040116;28;20044;-64
2023/12/31 01:13:53;;;;;;;4.03;2.00;;;7.50;99.90;;;;;;5050055;28;20045;-64
2023/12/31 01:16:19;;;;;;;4.38;1.95;;;7.50;99.90;;;;;;5058741;28;20088;-64
2023/12/31 01:18:46;;;;;;;4.15;2.05;;;7.50;99.90;;;;;;5052861;28;20441;-64
2023/12/31 01:21:12;;;;;;;9.85;2.38;;;7.50;99.90;;;;;;5062998;28;20055;-64
2023/12/31 01:23:38;;;;;;;2.53;1.92;;;7.50;99.90;;;;;;5065027;28;20036;-65
2023/12/31 01:26:03;;;;;;;2.20;1.73;;;7.50;99.90;;;;;;5061599;28;20040;-64
2023/12/31 01:28:29;;;;;;;3.35;1.75;;;7.50;99.90;;;;;;5052657;28;20075;-64
2023/12/31 01:30:55;;;;;;;7.03;2.42;;;7.50;99.90;;;;;;5063334;28;20052;-64
2023/12/31 01:33:21;;;;;;;8.93;2.15;;;7.40;99.90;;;;;;5059443;28;20498;-64
2023/12/31 01:35:47;;;;;;;4.93;1.95;;;7.40;99.90;;;;;;5062333;28;20076;-64
2023/12/31 01:38:12;;;;;;;5.45;1.75;;;7.40;99.90;;;;;;5063197;28;20067;-64
2023/12/31 01:40:38;;;;;;;5.35;2.05;;;7.30;99.90;;;;;;5056076;28;20092;-64
2023/12/31 01:43:04;;;;;;;5.13;2.00;;;7.40;99.90;;;;;;5049552;28;20502;-64
2023/12/31 01:45:30;;;;;;;8.07;2.05;;;7.30;99.90;;;;;;5062235;28;20040;-64
2023/12/31 01:47:55;;;;;;;3.67;2.28;;;7.30;99.90;;;;;;5062460;28;20044;-65
2023/12/31 01:50:22;;;;;;;6.40;1.98;;;7.30;99.90;;;;;;5060636;28;20107;-64
2023/12/31 01:52:48;;;;;;;3.53;1.77;;;7.30;99.90;;;;;;5058579;28;20480;-65
2023/12/31 01:55:15;;;;;;;4.90;1.65;;;7.30;99.90;;;;;;5061577;28;20037;-64
2023/12/31 01:57:41;;;;;;;6.97;2.47;;;7.20;99.90;;;;;;5061097;28;20470;-64
2023/12/31 02:00:09;;;;;;;7.25;1.95;;;7.20;99.90;;;;;;5063689;28;20524;-64
2023/12/31 02:02:36;;;;;;;5.60;2.42;;;7.20;99.90;;;;;;5058805;28;20414;-65
2023/12/31 02:05:02;;;;;;;3.50;2.25;;;7.20;99.90;;;;;;5060229;28;20178;-64
2023/12/31 02:07:27;;;;;;;3.53;2.20;;;7.20;99.90;;;;;;5063488;28;20102;-64
2023/12/31 02:09:53;;;;;;;2.45;2.20;;;7.20;99.90;;;;;;5055266;28;20430;-64
2023/12/31 02:12:22;;;;;;;6.15;2.22;;;7.20;99.90;;;;;;5061405;28;20581;-64
2023/12/31 02:14:48;;;;;;;3.70;1.95;;;7.20;99.90;;;;;;5056164;28;20053;-64
2023/12/31 02:17:13;;;;;;;3.22;1.80;;;7.20;99.90;;;;;;5057302;28;20513;-64
2023/12/31 02:19:39;;;;;;;2.33;1.90;;;7.30;99.90;;;;;;5063120;28;20123;-64
2023/12/31 02:22:07;;;;;;;4.70;1.80;;;7.30;99.90;;;;;;5061331;28;20589;-64
2023/12/31 02:24:45;;;;;;;6.97;1.70;;;7.30;99.90;;;;;;5058165;28;20131;-64
2023/12/31 02:27:11;;;;;;;2.67;2.03;;;7.30;99.90;;;;;;5050398;28;20052;-64
2023/12/31 02:29:37;;;;;;;5.63;1.90;;;7.30;99.90;;;;;;5049138;28;20045;-64
2023/12/31 02:32:03;;;;;;;3.22;1.50;;;7.30;99.90;;;;;;5049529;28;20467;-64
2023/12/31 02:34:28;;;;;;;3.83;1.75;;;7.40;99.90;;;;;;5060324;28;20060;-64
2023/12/31 02:36:55;;;;;;;1.45;1.30;;;7.40;99.90;;;;;;5051076;28;20032;-64
2023/12/31 02:39:23;;;;;;;4.40;1.67;;;7.30;99.90;;;;;;5060744;28;20508;-64
2023/12/31 02:41:48;;;;;;;3.13;2.05;;;7.40;99.90;;;;;;5051702;28;20048;-64
2023/12/31 02:44:14;;;;;;;1.48;1.38;;;7.40;99.90;;;;;;5047799;28;20045;-64
2023/12/31 02:46:40;;;;;;;3.50;1.38;;;7.50;99.90;;;;;;5048120;28;20037;-64
2023/12/31 02:49:08;;;;;;;2.78;1.30;;;7.40;99.90;;;;;;5056637;28;20044;-64
2023/12/31 02:51:34;;;;;;;2.85;1.30;;;7.40;99.90;;;;;;5059733;28;20045;-64
2023/12/31 02:54:00;;;;;;;2.05;1.17;;;7.40;99.90;;;;;;5046067;28;20558;-64
2023/12/31 02:56:26;;;;;;;2.83;1.13;;;7.40;99.90;;;;;;5058636;28;20048;-64
2023/12/31 02:58:52;;;;;;;3.15;1.30;;;7.40;99.90;;;;;;5049599;28;20091;-64
2023/12/31 03:01:17;;;;;;;0.80;0.80;;;7.50;99.90;;;;;;5057689;28;20486;-64
2023/12/31 03:03:43;;;;;;;7.43;1.10;;;7.50;99.90;;;;;;5057850;28;20041;-64
2023/12/31 03:06:14;;;;;;;2.60;1.45;;;7.50;99.90;;;;;;5046284;28;20045;-64
2023/12/31 03:08:40;;;;;;;0.95;0.95;;;7.50;99.90;;;;;;5059585;28;20052;-64
2023/12/31 03:11:08;;;;;;;4.65;1.52;;;7.50;99.90;;;;;;5057381;28;20048;-64
2023/12/31 03:13:34;;;;;;;2.67;1.20;;;7.60;99.90;;;;;;5054784;28;20044;-64
2023/12/31 03:16:06;;;;;;;1.10;0.95;;;7.50;99.90;;;;;;5050639;28;20540;-64
2023/12/31 03:18:32;;;;;;;1.17;1.00;;;7.50;99.90;;;;;;5056016;28;20052;-64
2023/12/31 03:20:58;;;;;;;2.80;1.20;;;7.50;99.90;;;;;;5063150;28;20040;-64
2023/12/31 03:23:24;;;;;;;2.97;0.88;;;7.50;99.90;;;;;;5056955;28;20670;-64
2023/12/31 03:25:50;;;;;;;0.93;0.93;;;7.50;99.90;;;;;;5054624;28;20109;-64
2023/12/31 03:28:15;;;;;;;1.85;1.08;;;7.50;99.90;;;;;;5057868;28;20057;-64
2023/12/31 03:30:41;;;;;;;0.80;0.80;;;7.40;99.90;;;;;;5062651;28;20040;-64
2023/12/31 03:33:07;;;;;;;2.35;0.80;;;7.40;99.90;;;;;;5056302;28;20036;-64
2023/12/31 03:35:33;;;;;;;1.30;0.88;;;7.40;99.90;;;;;;5062198;28;20055;-64
2023/12/31 03:37:59;;;;;;;1.92;0.90;;;7.40;99.90;;;;;;5056333;28;20044;-64
2023/12/31 03:40:26;;;;;;;1.73;0.80;;;7.50;99.90;;;;;;5060674;28;20079;-64
2023/12/31 03:42:52;;;;;;;0.90;0.73;;;7.50;99.90;;;;;;5059561;28;20080;-64
2023/12/31 03:45:18;;;;;;;1.13;0.85;;;7.50;99.90;;;;;;5062078;28;20111;-64
2023/12/31 03:47:44;;;;;;;0.75;0.75;;;7.50;99.90;;;;;;5054792;28;20060;-64
2023/12/31 03:50:11;;;;;;;0.98;0.90;;;7.50;99.90;;;;;;5062113;28;20044;-64
2023/12/31 03:52:38;;;;;;;1.60;0.82;;;7.40;99.90;;;;;;5059842;28;20814;-64
2023/12/31 03:55:04;;;;;;;1.20;0.60;;;7.50;99.90;;;;;;5058608;28;20056;-64
2023/12/31 03:57:30;;;;;;;3.05;0.85;;;7.50;99.90;;;;;;5060230;28;20128;-64
2023/12/31 03:59:56;;;;;;;1.60;0.70;;;7.50;99.90;;;;;;5060607;28;20158;-64
2023/12/31 04:02:21;;;;;;;1.13;0.85;;;7.40;99.90;;;;;;5063850;28;20479;-65
2023/12/31 04:04:47;;;;;;;0.55;0.52;;;7.40;99.90;;;;;;5065351;28;20040;-64
2023/12/31 04:07:13;;;;;;;1.63;0.47;;;7.50;99.90;;;;;;5061320;28;20459;-64
2023/12/31 04:09:38;;;;;;;1.17;0.98;;;7.50;99.90;;;;;;5046676;28;20044;-64
2023/12/31 04:12:05;;;;;;;1.77;0.95;;;7.50;99.90;;;;;;5064393;28;20041;-64
2023/12/31 04:14:32;;;;;;;0.75;0.45;;;7.50;99.90;;;;;;5045600;28;20569;-64
2023/12/31 04:16:58;;;;;;;0.90;0.60;;;7.50;99.90;;;;;;5049015;28;20044;-65
2023/12/31 04:19:23;;;;;;;3.20;0.52;;;7.50;99.90;;;;;;5061168;28;20102;-65
2023/12/31 04:21:49;;;;;;;0.77;0.77;;;7.50;99.90;;;;;;5046219;28;20052;-65
2023/12/31 04:24:15;;;;;;;1.83;0.57;;;7.60;99.90;;;;;;5060393;28;20047;-65
2023/12/31 04:26:46;;;;;;;0.85;0.75;;;7.50;99.90;;;;;;5063082;28;20056;-65
2023/12/31 04:29:12;;;;;;;0.85;0.70;;;7.50;99.90;;;;;;5063754;28;20049;-65
2023/12/31 04:31:42;;;;;;;2.45;1.10;;;7.60;99.90;;;;;;5064095;28;20110;-65
2023/12/31 04:34:08;;;;;;;;;;;7.60;99.90;;;;;;5063574;28;20655;-65
2023/12/31 04:36:34;;;;;;;4.00;1.10;;;7.60;99.90;;;;;;5048695;28;19950;-65
2023/12/31 04:38:59;;;;;;;1.63;0.90;;;7.60;99.90;;;;;;5055548;28;20088;-65
2023/12/31 04:41:25;;;;;;;1.55;0.80;;;7.60;99.90;;;;;;5056249;28;20145;-64
2023/12/31 04:43:51;;;;;;;2.90;1.00;;;7.70;99.90;;;;;;5060043;28;20076;-65
2023/12/31 04:46:20;;;;;;;1.13;0.70;;;7.70;99.90;;;;;;5063402;28;20041;-65
2023/12/31 04:48:46;;;;;;;1.13;1.02;;;7.70;99.90;;;;;;5052722;28;20485;-65
2023/12/31 04:51:26;;;;;;;1.90;1.15;;;7.70;99.90;;;;;;5055291;28;20080;-65
2023/12/31 04:53:53;;;;;;;1.30;1.10;;;7.70;99.90;;;;;;5047738;28;20138;-64
2023/12/31 04:56:26;;;;;;;2.10;1.10;;;7.70;99.90;;;;;;5030986;28;20056;-65
2023/12/31 04:58:53;;;;;;;2.20;1.30;;;7.70;99.90;;;;;;5062873;28;20103;-64
2023/12/31 05:01:19;;;;;;;1.55;0.80;;;7.70;99.90;;;;;;5061438;28;20417;-65
2023/12/31 05:03:46;;;;;;;1.05;1.00;;;7.80;99.90;;;;;;5059802;28;20041;-65
2023/12/31 05:06:13;;;;;;;1.95;1.08;;;7.80;99.90;;;;;;5046988;28;20048;-65
2023/12/31 05:08:45;;;;;;;0.93;0.93;;;7.80;99.90;;;;;;5050404;28;20052;-64
2023/12/31 05:11:13;;;;;;;1.45;1.10;;;7.80;99.90;;;;;;5063945;28;20082;-64
2023/12/31 05:13:40;;;;;;;1.58;1.00;;;7.80;99.90;;;;;;5062408;28;20110;-64
2023/12/31 05:16:07;;;;;;;2.95;1.00;;;7.80;99.90;;;;;;5048418;28;20554;-65
2023/12/31 05:18:33;;;;;;;0.95;0.93;;;7.80;99.90;;;;;;5047410;28;20052;-64
2023/12/31 05:21:01;;;;;;;1.95;1.00;;;7.80;99.90;;;;;;5047278;28;20273;-65
2023/12/31 05:23:27;;;;;;;2.90;1.30;;;7.80;99.90;;;;;;5058181;28;20509;-65
2023/12/31 05:25:53;;;;;;;5.70;1.25;;;7.80;99.90;;;;;;5063513;28;20063;-64
2023/12/31 05:28:19;;;;;;;2.15;1.25;;;7.80;99.90;;;;;;5054652;28;20445;-65
2023/12/31 05:30:45;;;;;;;1.10;1.00;;;7.80;99.90;;;;;;5064967;28;20505;-65
2023/12/31 05:33:11;;;;;;;5.13;1.30;;;7.80;99.90;;;;;;5060835;28;20383;-65
2023/12/31 05:35:36;;;;;;;1.63;0.73;;;7.80;99.90;;;;;;5055132;28;20716;-65
2023/12/31 05:38:02;;;;;;;2.50;1.45;;;7.80;99.90;;;;;;5062924;28;20059;-65
2023/12/31 05:40:28;;;;;;;3.60;1.08;;;7.80;99.90;;;;;;5045302;28;20040;-65
2023/12/31 05:42:54;;;;;;;3.05;1.15;;;7.80;99.90;;;;;;5063241;28;20094;-64
2023/12/31 05:45:20;;;;;;;1.02;1.00;;;7.80;99.90;;;;;;5059896;28;20087;-65
2023/12/31 05:47:46;;;;;;;4.13;1.58;;;7.90;99.90;;;;;;5059893;28;20502;-65
2023/12/31 05:50:15;;;;;;;1.30;1.05;;;7.90;99.90;;;;;;5061867;28;20055;-64
2023/12/31 05:52:42;;;;;;;2.78;1.40;;;7.90;99.90;;;;;;5060411;28;20321;-65
2023/12/31 05:55:09;;;;;;;3.70;1.63;;;7.80;99.90;;;;;;5059703;28;20044;-65
2023/12/31 05:57:35;;;;;;;1.10;1.00;;;7.80;99.90;;;;;;5057931;28;20051;-65
2023/12/31 06:00:02;;;;;;;4.47;1.40;;;7.70;99.90;;;;;;5054747;28;20044;-64
2023/12/31 06:02:27;;;;;;;2.28;1.30;;;7.70;99.90;;;;;;5062403;28;20052;-64
2023/12/31 06:04:53;;;;;;;1.42;0.93;;;7.70;99.90;;;;;;5060312;28;20086;-65
2023/12/31 06:07:19;;;;;;;3.33;1.40;;;7.70;99.90;;;;;;5061993;28;20134;-64
2023/12/31 06:09:45;;;;;;;1.73;1.63;;;7.60;99.90;;;;;;5064136;28;20639;-64
2023/12/31 06:12:11;;;;;;;1.20;1.13;;;7.60;99.90;;;;;;5057854;28;20453;-64
2023/12/31 06:14:36;;;;;;;1.38;0.93;;;7.60;99.90;;;;;;5055357;28;20040;-64
2023/12/31 06:17:02;;;;;;;2.72;1.42;;;7.60;99.90;;;;;;5046086;28;20040;-64
2023/12/31 06:19:28;;;;;;;2.40;1.20;;;7.70;99.90;;;;;;5058326;28;20091;-64
2023/12/31 06:21:53;;;;;;;1.35;1.20;;;7.70;99.90;;;;;;5052131;28;20052;-64
2023/12/31 06:24:19;;;;;;;1.70;1.17;;;7.70;99.90;;;;;;5051290;28;20050;-64
2023/12/31 06:26:45;;;;;;;1.02;1.02;;;7.70;99.90;;;;;;5063142;28;20512;-64
2023/12/31 06:29:11;;;;;;;3.92;1.58;;;7.70;99.90;;;;;;5058762;28;20060;-64
2023/12/31 06:31:36;;;;;;;2.58;1.02;;;7.80;99.90;;;;;;5050806;28;20044;-64
2023/12/31 06:34:03;;;;;;;1.48;1.38;;;7.80;99.90;;;;;;5061092;28;20375;-64
2023/12/31 06:36:29;;;;;;;3.45;1.42;;;7.80;99.90;;;;;;5045238;28;20059;-64
2023/12/31 06:38:55;;;;;;;1.33;1.20;;;7.80;99.90;;;;;;5061858;28;20048;-64
2023/12/31 06:41:21;;;;;;;1.90;0.77;;;7.70;99.90;;;;;;5046468;28;20049;-64
2023/12/31 06:43:47;;;;;;;1.70;1.27;;;7.80;99.90;;;;;;5058333;28;20090;-64
2023/12/31 06:46:14;;;;;;;2.00;1.48;;;7.80;99.90;;;;;;5060373;28;20043;-64
2023/12/31 06:48:40;;;;;;;2.55;1.58;;;7.80;99.90;;;;;;5049922;28;20079;-64
2023/12/31 06:51:06;;;;;;;3.58;1.27;;;7.80;99.90;;;;;;5060040;28;20757;-64
2023/12/31 06:53:34;;;;;;;2.08;1.08;;;7.70;99.90;;;;;;5058674;28;20481;-64
2023/12/31 06:56:07;;;;;;;2.40;1.30;;;7.80;99.90;;;;;;5061966;28;20052;-64
2023/12/31 06:58:37;;;;;;;2.00;0.98;;;7.80;99.90;;;;;;5061850;28;20041;-64
2023/12/31 07:01:04;;;;;;;2.03;1.23;;;7.80;99.90;;;;;;5053796;28;20096;-64
2023/12/31 07:03:29;;;;;;;2.95;1.35;;;7.80;99.90;;;;;;5054027;28;20045;-65
2023/12/31 07:05:56;;;;;;;1.35;1.23;;;7.80;99.90;;;;;;5060216;28;20384;-64
2023/12/31 07:08:22;;;;;;;2.40;1.48;;;7.80;99.90;;;;;;5053816;28;20136;-64
2023/12/31 07:10:47;;;;;;;1.75;1.25;;;7.80;99.90;;;;;;5059917;28;20222;-64
2023/12/31 07:13:14;;;;;;;2.55;1.38;;;7.80;99.90;;;;;;5043164;28;20520;-64
2023/12/31 07:15:43;;;;;;;2.10;1.40;;;7.80;99.90;;;;;;5061695;28;20044;-64
2023/12/31 07:18:09;;;;;;;1.90;1.25;;;7.80;99.90;;;;;;5051528;28;20124;-64
2023/12/31 07:20:35;;;;;;;3.22;1.30;;;7.80;99.90;;;;;;5042529;28;20052;-64
2023/12/31 07:23:00;;;;;;;0.93;0.93;;;7.80;99.90;;;;;;5055148;28;20394;-64
2023/12/31 07:25:28;;;;;;;3.40;1.65;;;7.80;99.90;;;;;;5061167;28;20104;-64
2023/12/31 07:27:54;;;;;;;3.47;1.08;;;7.80;99.90;;;;;;5057235;28;20088;-64
2023/12/31 07:30:20;;;;;;;1.73;0.98;;;7.80;99.90;;;;;;5056055;28;20041;-64
2023/12/31 07:32:46;;;;;;;4.63;1.50;;;7.80;99.90;;;;;;5062219;28;20506;-64
2023/12/31 07:35:12;;;;;;;2.47;1.83;;;7.80;99.90;;;;;;5062129;28;20041;-64
2023/12/31 07:37:39;;;;;;;2.80;1.60;;;7.80;99.90;;;;;;5057949;28;20044;-64
2023/12/31 07:40:09;;;;;;;6.13;1.10;;;7.90;99.90;;;;;;5065377;28;20095;-64
2023/12/31 07:42:37;;;;;;;1.33;1.23;;;7.80;99.90;;;;;;5057122;28;20072;-64
2023/12/31 07:45:04;;;;;;;2.13;1.08;;;7.80;99.90;;;;;;5056607;28;20459;-64
2023/12/31 07:47:31;;;;;;;4.93;1.25;;;7.80;99.90;;;;;;5046565;28;20440;-64
2023/12/31 07:49:58;;;;;;;1.65;0.95;;;7.80;99.90;;;;;;5050845;28;20071;-64
2023/12/31 07:52:25;;;;;;;2.63;0.98;;;7.80;99.90;;;;;;5065362;28;20086;-64
2023/12/31 07:54:51;;;;;;;3.10;1.10;;;7.80;99.90;;;;;;5057541;28;20040;-64
2023/12/31 07:57:17;;;;;;;1.52;1.30;;;7.80;99.90;;;;;;5057962;28;20094;-64
2023/12/31 07:59:43;;;;;;;5.40;1.48;;;7.80;99.90;;;;;;5062089;28;20041;-64
2023/12/31 08:02:09;;;;;;;1.10;1.00;;;7.80;99.90;;;;;;5061904;28;20074;-64
2023/12/31 08:04:35;;;;;;;2.97;1.33;;;7.80;99.90;;;;;;5063711;28;20037;-64
2023/12/31 08:07:00;;;;;;;2.25;1.67;;;7.80;99.90;;;;;;5062150;28;20079;-64
2023/12/31 08:09:26;;;;;;;2.42;1.58;;;7.80;99.90;;;;;;5059941;28;20098;-64
2023/12/31 08:11:53;;;;;;;3.05;1.20;;;7.80;99.90;;;;;;5058468;28;20048;-64
2023/12/31 08:14:19;;;;;;;1.48;1.38;;;7.80;99.90;;;;;;5060970;28;20071;-64
2023/12/31 08:16:44;;;;;;;1.45;1.35;;;7.80;99.90;;;;;;5061720;28;20413;-64
2023/12/31 08:19:10;;;;;;;2.05;1.20;;;7.80;99.90;;;;;;5062406;28;20068;-64
2023/12/31 08:21:36;;;;;;;1.90;1.05;;;7.90;99.90;;;;;;5062574;28;20036;-64
2023/12/31 08:24:03;;;;;;;1.38;1.23;;;7.90;99.90;;;;;;5063961;28;20041;-66
2023/12/31 08:26:29;;;;;;;2.70;1.40;;;7.90;99.90;;;;;;5063114;28;20056;-64
2023/12/31 08:28:54;;;;;;;1.10;1.00;;;7.90;99.90;;;;;;5062604;28;20393;-64
2023/12/31 08:31:20;;;;;;;0.95;0.95;;;7.90;99.90;;;;;;5062401;28;20044;-64
2023/12/31 08:33:46;;;;;;;1.85;1.27;;;7.90;99.90;;;;;;5060960;28;20044;-64
2023/12/31 08:36:12;;;;;;;1.23;1.08;;;7.90;99.90;;;;;;5062121;28;20044;-64
2023/12/31 08:38:37;;;;;;;2.75;1.33;;;8.00;99.90;;;;;;5057475;28;20047;-64
2023/12/31 08:41:03;;;;;;;1.27;1.10;;;8.00;99.90;;;;;;5064210;28;20044;-64
2023/12/31 08:43:29;;;;;;;3.25;1.35;;;7.90;99.90;;;;;;5062050;28;20040;-64
2023/12/31 08:45:55;;;;;;;2.13;0.82;;;8.00;99.90;;;;;;5062948;28;20048;-64
2023/12/31 08:48:21;;;;;;;3.30;1.10;;;8.10;99.90;;;;;;5062628;28;20510;-64
2023/12/31 08:50:47;;;;;;;1.95;1.30;;;8.00;99.90;;;;;;5063512;28;20048;-64
2023/12/31 08:53:13;;;;;;;3.22;1.00;;;8.10;99.90;;;;;;5062629;28;20054;-64
2023/12/31 08:55:39;;;;;;;2.20;1.17;;;8.10;99.90;;;;;;5062542;28;20414;-64
2023/12/31 08:58:05;;;;;;;3.20;1.10;;;8.10;99.90;;;;;;5045746;28;20125;-64
2023/12/31 09:00:31;;;;;;;2.78;1.60;;;8.20;99.90;;;;;;5059432;28;20051;-64
2023/12/31 09:02:57;;;;;;;2.92;1.25;;;8.20;99.90;;;;;;5062566;28;20049;-64
2023/12/31 09:05:23;;;;;;;1.30;1.20;;;8.20;99.90;;;;;;5061035;28;20512;-64
2023/12/31 09:07:49;;;;;;;1.10;1.00;;;8.20;99.90;;;;;;5063122;28;20418;-64
2023/12/31 09:10:14;;;;;;;1.98;1.02;;;8.20;99.90;;;;;;5063227;28;20035;-64
2023/12/31 09:12:40;;;;;;;2.70;1.05;;;8.20;99.90;;;;;;5047997;28;20090;-64
2023/12/31 09:15:07;;;;;;;1.48;1.35;;;8.20;99.90;;;;;;5062741;28;20479;-64
2023/12/31 09:17:33;;;;;;;2.63;1.30;;;8.30;99.90;;;;;;5059471;28;20033;-64
2023/12/31 09:20:00;;;;;;;2.33;0.90;;;8.30;99.90;;;;;;5045487;28;20558;-64
2023/12/31 09:22:27;;;;;;;1.38;1.25;;;8.40;99.90;;;;;;5055715;28;20044;-64
2023/12/31 09:24:53;;;;;;;1.30;1.15;;;8.50;99.90;;;;;;5061723;28;20043;-64
2023/12/31 09:27:19;;;;;;;1.90;1.10;;;8.60;99.90;;;;;;5053845;28;20060;-64
2023/12/31 09:29:46;;;;;;;5.00;1.10;;;8.70;99.90;;;;;;5059718;28;20510;-64
2023/12/31 09:32:12;;;;;;;0.68;0.65;;;8.70;99.90;;;;;;5056691;28;20886;-64
2023/12/31 09:34:38;;;;;;;0.82;0.82;;;8.80;99.90;;;;;;5061286;28;20070;-64
2023/12/31 09:37:03;;;;;;;1.58;1.20;;;8.80;99.90;;;;;;5057601;28;20044;-64
2023/12/31 09:39:29;;;;;;;0.82;0.80;;;8.90;99.90;;;;;;5053665;28;20037;-64
2023/12/31 09:42:01;;;;;;;3.60;1.13;;;8.90;99.90;;;;;;5061118;28;20102;-64
2023/12/31 09:44:27;;;;;;;1.92;1.38;;;9.00;99.90;;;;;;5058283;28;20033;-64
2023/12/31 09:47:01;;;;;;;0.60;0.60;;;9.00;99.90;;;;;;5057899;28;20576;-64
2023/12/31 09:49:27;;;;;;;2.60;1.20;;;9.00;99.90;;;;;;5057567;28;20424;-64
2023/12/31 09:51:53;;;;;;;2.50;1.00;;;9.00;99.90;;;;;;5059766;28;20052;-64
2023/12/31 09:54:21;;;;;;;1.58;1.33;;;9.10;99.90;;;;;;5039281;28;20053;-64
2023/12/31 09:56:49;;;;;;;0.98;0.98;;;9.00;99.90;;;;;;5059034;28;20123;-64
2023/12/31 09:59:16;;;;;;;1.40;1.17;;;9.00;99.90;;;;;;5062515;28;20559;-65
2023/12/31 10:01:42;;;;;;;1.42;1.33;;;9.00;99.90;;;;;;5043788;28;20135;-64
2023/12/31 10:04:09;;;;;;;1.30;0.98;;;9.00;99.90;;;;;;5061932;28;20055;-64
2023/12/31 10:06:37;;;;;;;1.25;1.13;;;9.00;99.90;;;;;;5058085;28;20111;-64
2023/12/31 10:09:06;;;;;;;2.03;1.17;;;9.00;99.90;;;;;;5052052;28;20364;-64
2023/12/31 10:11:33;;;;;;;2.53;1.50;;;9.00;99.90;;;;;;5052550;28;20048;-64
2023/12/31 10:13:59;;;;;;;0.95;0.63;;;9.10;99.90;;;;;;5059894;28;20692;-64
2023/12/31 10:16:36;;;;;;;1.38;1.02;;;9.10;99.90;;;;;;5058212;28;20048;-64
2023/12/31 10:19:03;;;;;;;1.50;1.40;;;9.20;99.90;;;;;;5061189;28;20048;-64
2023/12/31 10:21:29;;;;;;;1.85;1.38;;;9.20;99.90;;;;;;5068080;28;20042;-64
2023/12/31 10:23:55;;;;;;;1.27;1.27;;;9.20;99.90;;;;;;5061933;28;20378;-64
2023/12/31 10:26:20;;;;;;;1.58;1.33;;;9.20;99.90;;;;;;5059026;28;20056;-64
2023/12/31 10:28:46;;;;;;;2.63;1.20;;;9.30;99.90;;;;;;5059959;28;20056;-64
2023/12/31 10:31:12;;;;;;;1.50;1.40;;;9.30;99.90;;;;;;5047669;28;20041;-64
2023/12/31 10:33:39;;;;;;;2.88;1.33;;;9.30;99.90;;;;;;5057075;28;20040;-64
2023/12/31 10:36:06;;;;;;;2.47;1.10;;;9.30;99.90;;;;;;5059004;28;20102;-64
2023/12/31 10:38:48;;;;;;;1.98;1.20;;;9.30;99.90;;;;;;5059084;28;20045;-64
2023/12/31 10:41:21;;;;;;;1.98;1.33;;;9.30;99.90;;;;;;5060384;28;20592;-64
2023/12/31 10:43:48;;;;;;;0.73;0.73;;;9.30;99.90;;;;;;5024367;28;20059;-64
2023/12/31 10:46:15;;;;;;;1.10;1.05;;;9.30;99.90;;;;;;5056566;28;20561;-65
2023/12/31 10:49:02;;;;;;;1.30;1.30;;;9.30;99.90;;;;;;5053782;28;20056;-64
2023/12/31 10:51:28;;;;;;;0.80;0.80;;;9.40;99.90;;;;;;5055666;28;20052;-64
2023/12/31 10:53:57;;;;;;;1.85;1.17;;;9.50;99.90;;;;;;5055633;28;20320;-64
2023/12/31 10:56:24;;;;;;;1.65;1.55;;;9.50;99.90;;;;;;5050338;28;20056;-64
2023/12/31 10:58:54;;;;;;;2.33;1.60;;;9.50;99.90;;;;;;5051649;28;20060;-64
2023/12/31 11:01:22;;;;;;;5.63;1.50;;;9.50;99.90;;;;;;5055759;28;20110;-64
2023/12/31 11:03:48;;;;;;;2.35;1.30;;;9.50;99.90;;;;;;5054387;28;20045;-64
2023/12/31 11:06:16;;;;;;;1.55;1.35;;;9.50;99.90;;;;;;5058426;28;20184;-64
2023/12/31 11:08:44;;;;;;;5.85;3.40;;;9.50;99.90;;;;;;5046185;28;20475;-64
2023/12/31 11:11:11;;;;;;;1.40;1.30;;;9.50;99.90;;;;;;5063213;28;20040;-64
2023/12/31 11:13:40;;;;;;;2.83;1.08;;;9.60;99.90;;;;;;5056349;28;20275;-64
2023/12/31 11:16:14;;;;;;;2.08;0.82;;;9.60;99.90;;;;;;5062837;28;20047;-63
2023/12/31 11:19:04;;;;;;;2.30;1.90;;;9.70;99.90;;;;;;5054506;28;20040;-65
2023/12/31 11:21:48;;;;;;;1.77;1.02;;;9.70;99.90;;;;;;5051539;28;20071;-64
2023/12/31 11:24:18;;;;;;;4.32;1.63;;;9.90;99.90;;;;;;5062245;28;20049;-65
2023/12/31 11:26:44;;;;;;;1.10;1.10;;;9.90;99.90;;;;;;5052391;28;20052;-64
2023/12/31 11:29:13;;;;;;;1.23;1.13;;;9.90;99.90;;;;;;5060671;28;20473;-64
2023/12/31 11:31:42;;;;;;;2.30;1.40;;;10.00;99.90;;;;;;5049211;28;20515;-64
2023/12/31 11:34:09;;;;;;;3.50;1.27;;;10.00;99.90;;;;;;5061053;28;20047;-64
2023/12/31 11:36:35;;;;;;;2.33;1.35;;;10.00;99.90;;;;;;5057538;28;20177;-64
2023/12/31 11:39:06;;;;;;;2.35;1.80;;;10.00;99.90;;;;;;5062625;28;20056;-64
2023/12/31 11:41:39;;;;;;;4.97;0.90;;;10.00;99.90;;;;;;5058981;28;20046;-64
2023/12/31 11:44:04;;;;;;;1.42;1.30;;;10.10;99.90;;;;;;5063500;28;20048;-64
2023/12/31 11:46:38;;;;;;;1.63;1.15;;;10.10;99.90;;;;;;5057019;28;20059;-65
2023/12/31 11:49:05;;;;;;;1.35;1.25;;;10.10;99.90;;;;;;5057666;28;20056;-64
2023/12/31 11:51:54;;;;;;;1.45;1.08;;;10.10;99.90;;;;;;5063095;28;20049;-64
2023/12/31 11:54:34;;;;;;;2.60;0.93;;;10.10;99.90;;;;;;5053822;28;20037;-64
2023/12/31 11:57:10;;;;;;;1.58;1.38;;;10.00;99.90;;;;;;5061937;28;20584;-64
2023/12/31 11:59:42;;;;;;;0.98;0.98;;;10.00;99.90;;;;;;5056522;28;20167;-64
2023/12/31 12:02:08;;;;;;;1.63;1.17;;;10.00;99.90;;;;;;5060308;28;20394;-64
2023/12/31 12:04:35;;;;;;;0.98;0.77;;;10.10;99.90;;;;;;5062600;28;20044;-64
2023/12/31 12:07:02;;;;;;;1.15;1.13;;;10.10;99.90;;;;;;5063165;28;20477;-64
2023/12/31 12:09:31;;;;;;;1.98;1.27;;;10.00;99.90;;;;;;5059500;28;20178;-64
2023/12/31 12:12:04;;;;;;;2.45;1.52;;;10.00;99.90;;;;;;5054782;28;20538;-64
2023/12/31 12:14:31;;;;;;;1.67;1.38;;;9.90;99.90;;;;;;5044323;28;20980;-64
2023/12/31 12:17:00;;;;;;;0.75;0.63;;;9.90;99.90;;;;;;5045483;28;20049;-64
2023/12/31 12:19:26;;;;;;;1.70;1.60;;;9.80;99.90;;;;;;5061633;28;20046;-64
2023/12/31 12:21:53;;;;;;;1.45;1.15;;;9.80;99.90;;;;;;5063406;28;20178;-64
2023/12/31 12:24:19;;;;;;;0.85;0.85;;;9.80;99.90;;;;;;5063434;28;20052;-64
2023/12/31 12:26:48;;;;;;;5.38;1.45;;;9.70;99.90;;;;;;5063072;28;20053;-64
2023/12/31 12:29:15;;;;;;;1.67;1.58;;;9.60;99.90;;;;;;5062707;28;20051;-64
2023/12/31 12:31:46;;;;;;;1.35;1.25;;;9.60;99.90;;;;;;5061168;28;20479;-64
2023/12/31 12:34:14;;;;;;;2.05;1.13;;;9.60;99.90;;;;;;5061017;28;20506;-64
2023/12/31 12:36:41;;;;;;;2.20;1.13;;;9.50;99.90;;;;;;5061930;28;20083;-64
2023/12/31 12:39:20;;;;;;;2.90;0.88;;;9.30;99.90;;;;;;5062791;28;20058;-64
2023/12/31 12:41:48;;;;;;;2.90;0.70;;;9.00;99.90;;;;;;5060209;28;20045;-64
2023/12/31 12:44:15;;;;;;;1.30;0.60;;;8.90;99.90;;;;;;5062260;28;20048;-64
2023/12/31 12:46:42;;;;;;;0.50;0.50;;;8.70;99.90;;;;;;5061980;28;20040;-64
2023/12/31 12:49:09;;;;;;;2.67;0.47;;;8.60;99.90;;;;;;5060553;28;20456;-65
2023/12/31 12:51:35;;;;;;;4.90;0.60;;;8.50;99.90;;;;;;5062894;28;20492;-65
2023/12/31 12:54:02;;;;;;;2.70;0.20;;;8.40;99.90;;;;;;5062260;28;20032;-64
2023/12/31 12:56:29;;;;;;;1.08;0.30;;;8.30;99.90;;;;;;5063000;28;20090;-64